Time;durP1;ratioP1;P1;durP2;ratioP2;P2;SDS_P1;SDS_P2;PMS_P1;PMS_P2;Temp;Humidity;BMP_temperature;BMP_pressure;BME280_temperature;BME280_humidity;BME280_pressure;Samples;Min_cycle;Max_cycle;Signal;HPM_P1;HPM_P2
2023/10/12 00:01:26;;;;;;;16.83;9.57;;;;;;;12.04;100.00;100974.23;1541650;89;21198;-78
2023/10/12 00:03:57;;;;;;;13.30;8.70;;;;;;;12.00;100.00;100970.67;1386715;89;21551;-78
2023/10/12 00:06:26;;;;;;;16.62;8.70;;;;;;;11.94;100.00;100966.31;1539788;88;22130;-78
2023/10/12 00:08:51;;;;;;;13.60;8.77;;;;;;;11.91;100.00;100961.30;1543771;89;21421;-78
2023/10/12 00:11:20;;;;;;;15.77;9.07;;;;;;;11.89;100.00;100963.73;1387751;88;21346;-78
2023/10/12 00:13:51;;;;;;;12.23;7.97;;;;;;;11.87;100.00;100964.36;1397084;88;21279;-79
2023/10/12 00:16:18;;;;;;;18.60;9.13;;;;;;;11.84;100.00;100960.64;1387057;88;21538;-79
2023/10/12 00:18:45;;;;;;;20.30;9.00;;;;;;;11.80;100.00;100959.27;1387224;88;21309;-79
2023/10/12 00:21:15;;;;;;;11.53;8.53;;;;;;;11.75;100.00;100959.19;1537070;89;21294;-79
2023/10/12 00:23:39;;;;;;;12.27;8.90;;;;;;;11.70;100.00;100956.61;1545609;88;22123;-79
2023/10/12 00:26:06;;;;;;;18.07;9.17;;;;;;;11.64;100.00;100954.03;1377078;90;21258;-79
2023/10/12 00:28:38;;;;;;;11.90;8.57;;;;;;;11.59;100.00;100948.81;1376465;90;22278;-80
2023/10/12 00:31:11;;;;;;;12.30;8.13;;;;;;;11.57;100.00;100952.94;1545787;88;21206;-79
2023/10/12 00:33:33;;;;;;;21.03;9.07;;;;;;;11.54;100.00;100945.27;1384789;90;21316;-78
2023/10/12 00:36:01;;;;;;;12.30;8.53;;;;;;;11.53;100.00;100942.25;1387782;89;22292;-78
2023/10/12 00:38:31;;;;;;;12.30;8.27;;;;;;;11.53;100.00;100938.28;1392162;88;21346;-80
2023/10/12 00:41:04;;;;;;;15.50;8.10;;;;;;;11.54;100.00;100929.38;1384212;88;21472;-80
2023/10/12 00:43:41;;;;;;;12.63;8.00;;;;;;;11.56;100.00;100934.02;1545425;88;21294;-79
2023/10/12 00:46:21;;;;;;;18.30;9.57;;;;;;;11.54;100.00;100929.38;1540034;88;21272;-79
2023/10/12 00:48:48;;;;;;;14.23;8.23;;;;;;;11.51;100.00;100925.68;1385875;90;21538;-79
2023/10/12 00:51:14;;;;;;;13.73;8.93;;;;;;;11.45;100.00;100926.22;1532425;89;22160;-79
2023/10/12 00:53:52;;;;;;;17.03;8.60;;;;;;;11.40;100.00;100919.20;1538192;89;21549;-81
2023/10/12 00:56:11;;;;;;;11.80;7.60;;;;;;;11.37;100.00;100920.81;1389712;89;22240;-80
2023/10/12 00:58:38;;;;;;;11.90;8.67;;;;;;;11.35;100.00;100918.78;1385391;88;22063;-80
2023/10/12 01:01:05;;;;;;;12.03;8.33;;;;;;;11.34;100.00;100919.77;1391810;88;21301;-80
2023/10/12 01:03:37;;;;;;;12.60;9.03;;;;;;;11.30;100.00;100912.56;1387792;89;22263;-80
2023/10/12 01:08:35;;;;;;;12.30;8.23;;;;;;;11.27;100.00;100904.41;1521423;90;21200;-80
2023/10/12 01:11:05;;;;;;;12.73;9.00;;;;;;;11.25;100.00;100905.55;1535448;90;21266;-80
2023/10/12 01:13:33;;;;;;;12.33;8.93;;;;;;;11.21;100.00;100908.11;1377386;89;21302;-79
2023/10/12 01:15:58;;;;;;;13.97;8.13;;;;;;;11.16;100.00;100901.06;1377378;89;21324;-80
2023/10/12 01:18:28;;;;;;;11.20;7.47;;;;;;;11.12;100.00;100902.33;1378872;90;21379;-81
2023/10/12 01:20:53;;;;;;;12.63;8.07;;;;;;;11.07;100.00;100909.36;1377573;89;22190;-80
2023/10/12 01:23:19;;;;;;;13.33;7.47;;;;;;;11.00;100.00;100910.41;1379759;90;21220;-79
2023/10/12 01:25:48;;;;;;;13.03;7.50;;;;;;;10.93;100.00;100911.92;1385091;89;21414;-80
2023/10/12 01:28:15;;;;;;;15.80;9.13;;;;;;;10.83;100.00;100908.45;1533213;90;21405;-80
2023/10/12 01:30:44;;;;;;;14.70;9.37;;;;;;;10.75;100.00;100907.80;1378181;89;21318;-80
2023/10/12 01:33:10;;;;;;;16.33;9.67;;;;;;;10.65;100.00;100904.31;1399409;89;21456;-80
2023/10/12 01:35:40;;;;;;;12.93;9.10;;;;;;;10.56;100.00;100903.31;1428864;89;22300;-80
2023/10/12 01:38:08;;;;;;;12.78;8.78;;;;;;;10.49;100.00;100903.98;1375481;89;21265;-80
2023/10/12 01:43:12;;;;;;;10.43;7.33;;;;;;;10.31;100.00;100901.98;1535608;90;21206;-79
2023/10/12 01:45:43;;;;;;;8.93;7.57;;;;;;;10.22;100.00;100905.41;1532772;90;21310;-79
2023/10/12 01:48:22;;;;;;;10.13;7.60;;;;;;;10.22;100.00;100904.09;1535503;89;21214;-79
2023/10/12 01:50:47;;;;;;;13.10;8.10;;;;;;;10.22;100.00;100902.77;1529270;89;21294;-79
2023/10/12 01:53:25;;;;;;;12.40;7.90;;;;;;;10.20;100.00;100903.87;1377364;89;22263;-80
2023/10/12 01:55:46;;;;;;;14.40;7.93;;;;;;;10.15;100.00;100901.61;1419863;89;22130;-79
2023/10/12 01:58:23;;;;;;;10.90;7.67;;;;;;;10.09;100.00;100908.76;1384130;89;21257;-79
2023/10/12 02:00:53;;;;;;;12.23;7.57;;;;;;;10.02;100.00;100910.27;1375781;89;21310;-80
2023/10/12 02:05:59;;;;;;;10.57;7.70;;;;;;;9.91;100.00;100912.02;1436920;89;21326;-79
2023/10/12 02:08:32;;;;;;;11.17;7.70;;;;;;;9.89;100.00;100909.15;1545797;88;21199;-79
2023/10/12 02:11:26;;;;;;;9.47;6.87;;;;;;;9.85;100.00;100911.22;1545795;88;21243;-78
2023/10/12 02:13:36;;;;;;;8.57;7.00;;;;;;;9.80;100.00;100909.45;1528150;89;21317;-77
2023/10/12 02:16:12;;;;;;;10.93;8.03;;;;;;;9.78;100.00;100908.77;1382398;90;21456;-77
2023/10/12 02:18:37;;;;;;;10.63;7.97;;;;;;;9.74;100.00;100902.05;1384993;90;21264;-78
2023/10/12 02:23:54;;;;;;;12.43;8.37;;;;;;;9.65;100.00;100901.02;1390259;88;21345;-78
2023/10/12 02:26:28;;;;;;;12.60;8.77;;;;;;;9.60;100.00;100903.70;1396303;90;21479;-77
2023/10/12 02:28:37;;;;;;;10.20;8.37;;;;;;;9.55;100.00;100904.11;1525631;88;21302;-78
2023/10/12 02:31:05;;;;;;;11.10;8.47;;;;;;;9.53;100.00;100898.10;1543307;89;21538;-79
2023/10/12 02:33:36;;;;;;;11.60;7.77;;;;;;;9.51;100.00;100899.20;1385612;88;21317;-78
2023/10/12 02:36:01;;;;;;;10.27;7.90;;;;;;;9.49;100.00;100896.21;1387236;89;21471;-78
2023/10/12 02:38:30;;;;;;;13.37;9.40;;;;;;;9.48;100.00;100902.44;1386689;89;22337;-79
2023/10/12 02:40:58;;;;;;;12.63;9.03;;;;;;;9.44;100.00;100898.39;1393447;88;22432;-79
2023/10/12 02:43:27;;;;;;;17.63;10.27;;;;;;;9.37;100.00;100898.53;1391858;88;21551;-77
2023/10/12 02:45:53;;;;;;;11.77;9.03;;;;;;;9.30;100.00;100893.42;1544298;89;21249;-77
2023/10/12 02:48:29;;;;;;;18.13;9.30;;;;;;;9.24;100.00;100892.13;1392969;88;21198;-77
2023/10/12 02:51:01;;;;;;;12.90;8.53;;;;;;;9.21;100.00;100883.63;1384928;89;21339;-77
2023/10/12 02:53:30;;;;;;;10.73;8.37;;;;;;;9.17;100.00;100887.47;1545789;89;22166;-79
2023/10/12 02:56:05;;;;;;;13.20;7.70;;;;;;;9.13;100.00;100884.75;1383786;89;22438;-79
2023/10/12 02:58:30;;;;;;;14.97;8.27;;;;;;;9.11;100.00;100885.34;1544944;88;21280;-79
2023/10/12 03:01:13;;;;;;;10.03;7.53;;;;;;;9.09;100.00;100880.66;1385753;88;22160;-77
2023/10/12 03:03:48;;;;;;;11.63;8.10;;;;;;;9.07;100.00;100878.66;1545942;88;21199;-77
2023/10/12 03:06:12;;;;;;;13.03;9.33;;;;;;;9.06;100.00;100870.36;1438534;88;21373;-77
2023/10/12 03:09:26;;;;;;;13.90;8.57;;;;;;;9.05;100.00;100874.81;1544139;89;22279;-77
2023/10/12 03:11:11;;;;;;;14.33;9.07;;;;;;;9.02;100.00;100871.10;1394753;89;22299;-77
2023/10/12 03:13:41;;;;;;;14.53;8.77;;;;;;;9.00;100.00;100868.58;1379926;89;21471;-77
2023/10/12 03:16:13;;;;;;;13.20;8.90;;;;;;;8.98;100.00;100865.25;1385172;88;21316;-78
2023/10/12 03:18:38;;;;;;;16.57;9.88;;;;;;;8.99;100.00;100875.32;1383461;90;21286;-77
2023/10/12 03:21:11;;;;;;;13.57;9.37;;;;;;;8.97;100.00;100872.79;1386396;88;21249;-77
2023/10/12 03:23:38;;;;;;;18.80;10.47;;;;;;;8.97;100.00;100876.75;1374581;90;21323;-77
2023/10/12 03:26:05;;;;;;;12.53;8.27;;;;;;;8.94;100.00;100878.33;1544608;89;22280;-77
2023/10/12 03:28:43;;;;;;;15.77;8.90;;;;;;;8.91;100.00;100883.02;1386397;89;21331;-77
2023/10/12 03:33:46;;;;;;;14.87;9.00;;;;;;;8.89;100.00;100880.53;1545752;88;21153;-77
2023/10/12 03:36:36;;;;;;;12.73;9.03;;;;;;;8.88;100.00;100878.00;1387502;88;22298;-77
2023/10/12 03:38:58;;;;;;;12.20;8.90;;;;;;;8.87;100.00;100879.80;1397675;89;21404;-80
2023/10/12 03:44:01;;;;;;;12.83;8.33;;;;;;;8.87;100.00;100876.34;1545748;88;21294;-81
2023/10/12 03:46:26;;;;;;;17.90;9.70;;;;;;;8.88;100.00;100867.44;1383950;89;21383;-77
2023/10/12 03:51:39;;;;;;;12.23;8.77;;;;;;;8.91;100.00;100870.66;1545723;89;21257;-77
2023/10/12 03:56:48;;;;;;;14.38;9.68;;;;;;;8.84;100.00;100872.14;1444276;88;22211;-77
2023/10/12 03:59:26;;;;;;;14.47;9.37;;;;;;;8.81;100.00;100871.08;1377032;90;21213;-77
2023/10/12 04:01:44;;;;;;;15.00;8.75;;;;;;;8.78;100.00;100872.64;1530824;88;21308;-77
2023/10/12 04:09:31;;;;;;;10.47;7.57;;;;;;;8.74;100.00;100871.20;1422831;93;21290;-77
2023/10/12 04:11:53;;;;;;;13.40;7.50;;;;;;;8.73;100.00;100864.26;1469541;93;21681;-76
2023/10/12 04:14:44;;;;;;;13.87;7.30;;;;;;;8.75;100.00;100867.13;1425537;93;21457;-77
2023/10/12 04:17:18;;;;;;;14.27;7.80;;;;;;;8.76;100.00;100871.44;1477741;93;22392;-78
2023/10/12 04:19:45;;;;;;;11.80;7.83;;;;;;;8.73;100.00;100865.58;1333917;93;22203;-78
2023/10/12 04:22:17;;;;;;;12.87;8.70;;;;;;;8.65;100.00;100856.12;1447750;93;21528;-78
2023/10/12 04:24:43;;;;;;;11.43;8.83;;;;;;;8.56;100.00;100869.58;1471678;93;21461;-79
2023/10/12 04:27:24;;;;;;;11.33;8.43;;;;;;;8.47;100.00;100869.84;1368938;93;22292;-79
2023/10/12 04:29:32;;;;;;;10.30;7.63;;;;;;;8.40;100.00;100869.98;1451788;93;21535;-79
2023/10/12 04:32:10;;;;;;;13.07;8.13;;;;;;;8.36;100.00;100868.50;1331112;93;21253;-79
2023/10/12 04:34:26;;;;;;;10.43;7.87;;;;;;;8.33;100.00;100868.75;1373960;93;21498;-78
2023/10/12 04:37:07;;;;;;;12.73;7.93;;;;;;;8.31;100.00;100873.30;1337588;93;21446;-76
2023/10/12 04:39:27;;;;;;;9.90;6.17;;;;;;;8.29;100.00;100873.93;1346560;93;21612;-76
2023/10/12 04:47:05;;;;;;;9.40;7.00;;;;;;;8.17;100.00;100878.38;1376452;89;22086;-77
2023/10/12 04:57:32;;;;;;;10.57;6.67;;;;;;;8.10;100.00;100880.63;1535515;89;21273;-79
2023/10/12 05:07:57;;;;;;;;;;;;;;;8.14;100.00;100890.00;1548186;88;21273;-78
2023/10/12 05:13:06;;;;;;;14.27;9.90;;;;;;;8.17;100.00;100892.02;1545813;88;21177;-79
2023/10/12 05:15:40;;;;;;;17.97;9.07;;;;;;;8.21;100.00;100892.15;1457875;88;21338;-77
2023/10/12 05:18:08;;;;;;;14.30;9.63;;;;;;;8.24;100.00;100882.19;1545807;88;21324;-79
2023/10/12 05:20:35;;;;;;;11.10;7.63;;;;;;;8.32;100.00;100890.34;1385811;88;22219;-79
2023/10/12 05:23:04;;;;;;;13.27;9.00;;;;;;;8.41;100.00;100894.08;1387226;88;21205;-79
2023/10/12 05:25:47;;;;;;;26.77;13.53;;;;;;;8.53;100.00;100891.77;1385340;88;22166;-78
2023/10/12 05:28:13;;;;;;;18.03;11.53;;;;;;;8.64;100.00;100888.77;1523155;88;21420;-78
2023/10/12 05:30:37;;;;;;;16.00;10.67;;;;;;;8.74;100.00;100891.83;1389564;90;21464;-79
2023/10/12 05:33:05;;;;;;;16.67;10.73;;;;;;;8.85;100.00;100890.13;1389531;88;22247;-78
2023/10/12 05:38:17;;;;;;;19.47;10.50;;;;;;;9.03;100.00;100890.80;1388871;89;22150;-80
2023/10/12 05:40:53;;;;;;;27.33;10.70;;;;;;;9.12;100.00;100882.59;1543369;89;22234;-80
2023/10/12 05:43:21;;;;;;;14.33;8.97;;;;;;;9.21;100.00;100883.63;1538609;88;22174;-79
2023/10/12 05:45:44;;;;;;;18.13;9.60;;;;;;;9.34;100.00;100880.80;1537649;88;22130;-77
2023/10/12 05:48:08;;;;;;;17.07;9.87;;;;;;;9.48;100.00;100878.66;1544330;88;22174;-79
2023/10/12 05:50:35;;;;;;;16.07;9.27;;;;;;;9.67;100.00;100872.67;1386023;88;21368;-79
2023/10/12 05:53:07;;;;;;;17.17;9.70;;;;;;;9.86;100.00;100878.52;1392480;89;21280;-79
2023/10/12 05:55:33;;;;;;;19.82;12.20;;;;;;;10.04;100.00;100877.89;1456533;89;21545;-78
2023/10/12 05:58:11;;;;;;;20.83;11.70;;;;;;;10.21;100.00;100877.27;1386615;89;21227;-78
2023/10/12 06:00:35;;;;;;;19.27;11.30;;;;;;;10.36;100.00;100875.97;1544874;88;21316;-82
2023/10/12 06:03:05;;;;;;;14.23;8.90;;;;;;;10.52;100.00;100873.28;1383928;89;21412;-77
2023/10/12 06:05:33;;;;;;;13.03;9.43;;;;;;;10.66;100.00;100869.41;1383397;88;21272;-81
2023/10/12 06:08:04;;;;;;;12.10;8.23;;;;;;;10.81;100.00;100880.77;1385051;89;22050;-80
2023/10/12 06:10:31;;;;;;;16.60;8.80;;;;;;;10.97;100.00;100884.70;1383466;89;21220;-80
2023/10/12 06:12:59;;;;;;;12.93;7.63;;;;;;;11.17;100.00;100891.67;1386746;88;21191;-79
2023/10/12 06:15:28;;;;;;;13.97;7.13;;;;;;;11.37;100.00;100886.36;1385495;88;21422;-78
2023/10/12 06:17:55;;;;;;;12.67;6.93;;;;;;;11.52;100.00;100893.71;1391854;88;21368;-80
2023/10/12 06:20:40;;;;;;;13.07;7.73;;;;;;;11.68;100.00;100901.09;1386664;88;21316;-78
2023/10/12 06:23:08;;;;;;;13.30;7.43;;;;;;;11.81;100.00;100895.95;1384294;90;21508;-80
2023/10/12 06:25:34;;;;;;;11.30;7.37;;;;;;;11.98;100.00;100900.53;1391591;88;21585;-81
2023/10/12 06:28:05;;;;;;;11.87;7.27;;;;;;;12.15;100.00;100901.09;1377383;90;21338;-80
2023/10/12 06:30:29;;;;;;;10.37;6.87;;;;;;;12.31;100.00;100895.14;1544872;89;21309;-83
2023/10/12 06:32:59;;;;;;;9.00;6.33;;;;;;;12.44;100.00;100897.47;1387667;88;21325;-83
2023/10/12 06:43:57;;;;;;;9.57;6.80;;;;;;;12.93;100.00;100894.00;1544985;89;21391;-76
2023/10/12 06:45:21;;;;;;;12.85;6.47;;;;;;;13.10;100.00;100892.33;1457137;89;21287;-81
2023/10/12 06:47:48;;;;;;;11.07;5.93;;;;;;;13.22;100.00;100883.63;1361323;91;21405;-77
2023/10/12 06:50:20;;;;;;;8.83;6.23;;;;;;;13.34;100.00;100876.27;1387025;88;21229;-78
2023/10/12 06:52:45;;;;;;;14.13;5.87;;;;;;;13.47;100.00;100876.21;1389908;89;21378;-78
2023/10/12 06:55:21;;;;;;;11.23;5.57;;;;;;;13.64;100.00;100877.66;1476090;90;21411;-78
2023/10/12 06:57:43;;;;;;;9.53;6.27;;;;;;;13.83;100.00;100876.09;1538741;88;21473;-77
2023/10/12 07:02:42;;;;;;;8.00;6.80;;;;;;;14.17;100.00;100890.73;1386027;89;21442;-80
2023/10/12 07:24:07;;;;;;;9.08;4.58;;;;;;;16.27;100.00;100862.28;1496862;85;28604;-78
2023/10/12 07:26:48;;;;;;;6.17;4.60;;;;;;;16.34;100.00;100865.43;1490609;87;21612;-78
2023/10/12 07:29:19;;;;;;;5.20;4.00;;;;;;;16.48;100.00;100859.82;1486190;87;21634;-80
2023/10/12 07:31:41;;;;;;;8.67;3.50;;;;;;;16.59;100.00;100848.73;1483876;87;21655;-77
2023/10/12 07:34:05;;;;;;;;;;;;;;;16.70;100.00;100852.85;1486708;87;21676;-77
2023/10/12 07:39:20;;;;;;;7.03;3.90;;;;;;;16.86;100.00;100838.55;1500033;85;22644;-78
2023/10/12 07:41:56;;;;;;;6.00;3.73;;;;;;;16.91;100.00;100840.20;1476362;87;21486;-81
2023/10/12 07:44:24;;;;;;;7.20;4.17;;;;;;;17.01;100.00;100851.49;1466432;87;21507;-81
2023/10/12 07:46:50;;;;;;;5.87;3.17;;;;;;;17.13;100.00;100839.86;1467407;87;22067;-80
2023/10/12 07:52:05;;;;;;;4.37;3.20;;;;;;;17.36;100.00;100845.17;1474110;87;21551;-82
2023/10/12 07:54:54;;;;;;;12.10;4.03;;;;;;;17.45;100.00;100840.57;1481079;88;21591;-81
2023/10/12 07:57:20;;;;;;;9.88;3.40;;;;;;;17.53;100.00;100841.83;1465838;87;22081;-79
2023/10/12 08:05:33;;;;;;;6.25;3.17;;;;;;;17.91;100.00;100842.60;1428778;90;21603;-79
2023/10/12 08:13:26;;;;;;;8.10;3.45;;;;;;;18.14;100.00;100832.28;1430676;91;23450;-80
2023/10/12 08:23:58;;;;;;;8.95;3.67;;;;;;;18.54;100.00;100821.52;1426249;90;21665;-79
2023/10/12 08:26:35;;;;;;;19.67;4.70;;;;;;;18.61;100.00;100820.23;1434995;90;21441;-81
2023/10/12 08:28:55;;;;;;;8.28;4.25;;;;;;;18.69;100.00;100818.26;1447342;89;21524;-80
2023/10/12 08:31:20;;;;;;;7.90;3.35;;;;;;;18.78;100.00;100816.31;1425456;90;21510;-78
2023/10/12 08:34:13;;;;;;;12.73;3.15;;;;;;;18.84;100.00;100813.37;1427746;91;21626;-84
2023/10/12 08:36:29;;;;;;;9.58;3.08;;;;;;;18.92;100.00;100808.70;1413411;90;21507;-79
2023/10/12 08:38:56;;;;;;;12.60;3.60;;;;;;;19.03;100.00;100808.70;1427368;91;22867;-82
2023/10/12 08:43:59;;;;;;;8.13;3.70;;;;;;;19.18;100.00;100802.42;1438355;90;21597;-82
2023/10/12 08:54:41;;;;;;;8.43;3.15;;;;;;;19.62;100.00;100787.31;1464881;88;22379;-81
2023/10/12 08:57:35;;;;;;;8.88;2.87;;;;;;;19.80;100.00;100790.34;1462411;88;21752;-81
2023/10/12 09:00:20;;;;;;;9.88;3.30;;;;;;;19.95;100.00;100789.37;1464197;88;21522;-79
2023/10/12 09:02:26;;;;;;;19.05;3.33;;;;;;;20.11;100.00;100795.75;1459220;88;21515;-82
2023/10/12 09:04:54;;;;;;;6.17;2.37;;;;;;;20.34;100.00;100789.18;1456332;88;22373;-80
2023/10/12 09:07:21;;;;;;;8.45;2.67;;;;;;;20.60;100.00;100791.98;1462196;88;21729;-82
2023/10/12 09:09:55;;;;;;;8.13;2.83;;;;;;;21.00;96.77;100796.02;1457250;88;22785;-81
2023/10/12 09:12:21;;;;;;;5.78;3.00;;;;;;;21.43;93.59;100790.20;1464079;88;21687;-80
2023/10/12 09:14:46;;;;;;;6.62;2.27;;;;;;;21.86;80.73;100794.53;1458236;88;22582;-80
2023/10/12 09:17:27;;;;;;;5.67;2.90;;;;;;;22.27;62.53;100779.06;1455299;88;21538;-80
2023/10/12 09:22:40;;;;;;;20.55;4.45;;;;;;;23.32;51.90;100791.98;1461687;88;21471;-79
2023/10/12 09:25:11;;;;;;;17.30;3.08;;;;;;;23.76;48.32;100787.37;1452127;88;21597;-79
2023/10/12 09:27:48;;;;;;;12.30;2.98;;;;;;;24.10;47.17;100786.72;1459681;88;21545;-80
2023/10/12 09:30:15;;;;;;;12.95;2.85;;;;;;;24.37;44.75;100790.44;1427150;90;21516;-79
2023/10/12 09:32:52;;;;;;;4.28;2.37;;;;;;;24.61;44.27;100794.06;1436677;89;22470;-77
2023/10/12 09:35:13;;;;;;;15.78;3.20;;;;;;;24.78;42.32;100793.40;1462064;88;22402;-77
2023/10/12 09:37:51;;;;;;;10.40;3.52;;;;;;;24.88;42.92;100786.87;1459522;88;21618;-81
2023/10/12 09:40:29;;;;;;;7.58;3.00;;;;;;;24.98;41.98;100791.19;1450022;88;24648;-78
2023/10/12 09:43:05;;;;;;;11.40;3.12;;;;;;;25.01;41.48;100785.30;1455353;88;22505;-80
2023/10/12 09:45:34;;;;;;;9.53;3.55;;;;;;;25.01;41.26;100783.95;1454748;88;21464;-79
2023/10/12 09:48:04;;;;;;;14.87;3.87;;;;;;;25.15;41.23;100786.75;1457778;88;21545;-81
2023/10/12 09:50:32;;;;;;;15.53;3.60;;;;;;;25.26;41.57;100779.70;1440681;88;21700;-80
2023/10/12 09:52:59;;;;;;;14.70;3.12;;;;;;;25.25;41.13;100778.56;1461107;88;22478;-79
2023/10/12 09:55:33;;;;;;;8.95;2.90;;;;;;;25.22;40.98;100778.50;1454137;88;21500;-77
2023/10/12 10:00:59;;;;;;;9.78;3.15;;;;;;;25.27;41.05;100767.79;1457872;88;22176;-80
2023/10/12 10:03:35;;;;;;;18.40;3.80;;;;;;;25.19;40.36;100764.89;1461534;88;21663;-79
2023/10/12 10:06:10;;;;;;;9.60;2.80;;;;;;;25.01;39.84;100771.77;1459100;88;22365;-80
2023/10/12 10:08:32;;;;;;;5.55;3.22;;;;;;;24.51;41.22;100768.93;1463862;88;21747;-81
2023/10/12 10:10:59;;;;;;;9.58;3.08;;;;;;;24.08;41.83;100760.97;1460588;88;21463;-80
2023/10/12 10:13:47;;;;;;;9.55;3.50;;;;;;;23.76;42.38;100754.94;1445929;88;21450;-78
2023/10/12 10:16:17;;;;;;;14.87;3.30;;;;;;;23.73;42.75;100748.11;1467167;88;21574;-78
2023/10/12 10:19:13;;;;;;;8.13;2.85;;;;;;;23.80;42.64;100744.81;1464905;88;21655;-80
2023/10/12 10:21:32;;;;;;;5.03;3.30;;;;;;;23.77;42.51;100746.63;1453927;88;21650;-79
2023/10/12 10:24:01;;;;;;;15.08;3.98;;;;;;;23.72;42.86;100742.41;1461381;88;21553;-81
2023/10/12 10:26:31;;;;;;;8.93;2.90;;;;;;;23.68;42.84;100734.45;1457795;88;21455;-82
2023/10/12 10:29:04;;;;;;;11.08;3.17;;;;;;;23.55;42.96;100727.31;1465020;88;21442;-82
2023/10/12 10:31:35;;;;;;;11.87;3.70;;;;;;;23.33;43.08;100717.50;1466412;88;21612;-82
2023/10/12 10:34:11;;;;;;;6.62;2.77;;;;;;;23.09;43.47;100704.34;1466666;88;21457;-81
2023/10/12 10:36:38;;;;;;;8.20;2.90;;;;;;;23.03;43.46;100709.29;1459663;88;21500;-80
2023/10/12 10:41:54;;;;;;;12.03;2.98;;;;;;;23.11;43.84;100702.25;1451273;89;21472;-82
2023/10/12 10:44:21;;;;;;;12.05;4.00;;;;;;;23.34;44.21;100700.23;1453436;89;21434;-80
2023/10/12 10:46:54;;;;;;;21.70;3.80;;;;;;;23.64;43.63;100696.75;1436086;89;21486;-80
2023/10/12 10:49:21;;;;;;;6.17;2.70;;;;;;;23.84;43.07;100689.23;1433709;90;21626;-79
2023/10/12 10:54:39;;;;;;;14.40;3.25;;;;;;;24.40;42.57;100681.78;1431323;90;21642;-79
2023/10/12 10:57:17;;;;;;;17.55;3.10;;;;;;;24.44;42.21;100669.45;1424440;91;21457;-79
2023/10/12 10:59:44;;;;;;;14.50;3.00;;;;;;;24.49;41.90;100656.59;1401915;91;21517;-80
2023/10/12 11:02:14;;;;;;;7.08;3.45;;;;;;;24.32;41.86;100653.17;1422432;91;22405;-79
2023/10/12 11:07:12;;;;;;;8.38;2.87;;;;;;;24.15;41.06;100646.80;1422390;91;22168;-78
2023/10/12 11:12:15;;;;;;;13.72;3.58;;;;;;;23.97;41.88;100633.37;1444559;89;21707;-80
2023/10/12 11:14:58;;;;;;;8.93;2.92;;;;;;;23.89;42.09;100633.69;1433207;90;21516;-80
2023/10/12 11:17:22;;;;;;;14.98;4.53;;;;;;;23.74;41.79;100620.61;1450858;89;21559;-81
2023/10/12 11:19:50;;;;;;;13.70;3.12;;;;;;;23.61;41.97;100613.47;1450156;89;21626;-79
2023/10/12 11:22:18;;;;;;;12.75;3.72;;;;;;;23.57;41.51;100613.64;1454352;89;21502;-80
2023/10/12 11:24:49;;;;;;;15.03;3.40;;;;;;;23.56;42.16;100606.06;1453304;88;21656;-78
2023/10/12 11:27:35;;;;;;;12.53;2.60;;;;;;;23.60;41.75;100604.54;1446684;88;22411;-76
2023/10/12 11:30:07;;;;;;;10.53;3.05;;;;;;;23.67;41.73;100598.22;1454636;89;21517;-80
2023/10/12 11:32:55;;;;;;;11.10;3.00;;;;;;;23.80;41.82;100597.53;1449209;89;21486;-80
2023/10/12 11:35:45;;;;;;;11.08;2.90;;;;;;;23.90;41.75;100590.73;1447571;89;21471;-78
2023/10/12 11:38:20;;;;;;;10.65;3.20;;;;;;;24.07;42.14;100595.23;1452837;89;22237;-78
2023/10/12 11:40:52;;;;;;;21.68;3.20;;;;;;;24.24;41.54;100588.61;1450570;88;21479;-79
2023/10/12 11:43:18;;;;;;;13.32;3.45;;;;;;;24.31;40.79;100585.28;1447087;89;21571;-77
2023/10/12 11:46:01;;;;;;;12.78;3.75;;;;;;;24.43;40.64;100588.02;1451516;89;21649;-80
2023/10/12 11:48:29;;;;;;;18.98;6.10;;;;;;;24.54;41.22;100582.28;1424474;91;21486;-80
2023/10/12 11:51:00;;;;;;;12.10;3.40;;;;;;;24.78;41.54;100580.40;1432995;91;22807;-79
2023/10/12 11:53:28;;;;;;;15.23;3.60;;;;;;;24.86;40.35;100585.95;1429085;91;21464;-80
2023/10/12 11:56:12;;;;;;;14.38;2.77;;;;;;;24.74;39.80;100581.41;1426694;91;22463;-77
2023/10/12 11:58:32;;;;;;;13.75;3.25;;;;;;;24.73;40.40;100585.16;1443091;89;21783;-79
2023/10/12 12:01:00;;;;;;;13.85;2.90;;;;;;;24.81;40.52;100579.11;1443315;89;21508;-80
2023/10/12 12:03:26;;;;;;;8.25;3.25;;;;;;;24.92;40.45;100582.33;1439777;89;21555;-80
2023/10/12 12:05:52;;;;;;;9.70;2.90;;;;;;;25.04;40.19;100580.40;1444388;89;21478;-78
2023/10/12 12:08:19;;;;;;;13.95;4.03;;;;;;;25.20;40.36;100583.75;1442259;89;21500;-79
2023/10/12 12:13:20;;;;;;;11.55;3.30;;;;;;;25.64;39.22;100584.03;1432247;91;21591;-78
2023/10/12 12:15:46;;;;;;;13.85;2.83;;;;;;;25.87;38.92;100572.80;1454575;88;21525;-80
2023/10/12 12:18:20;;;;;;;11.78;3.20;;;;;;;25.88;38.48;100571.72;1445392;88;21472;-80
2023/10/12 12:20:58;;;;;;;12.37;3.27;;;;;;;25.84;38.27;100566.52;1430504;91;22138;-79
2023/10/12 12:23:28;;;;;;;15.70;3.15;;;;;;;25.82;38.58;100571.32;1444845;89;21434;-81
2023/10/12 12:26:04;;;;;;;9.10;2.33;;;;;;;25.88;38.53;100563.59;1423294;91;21398;-78
2023/10/12 12:28:31;;;;;;;9.68;3.40;;;;;;;25.79;37.24;100555.55;1423760;91;21652;-80
2023/10/12 12:30:55;;;;;;;8.00;3.30;;;;;;;25.61;37.45;100556.06;1436788;89;21522;-80
2023/10/12 12:33:23;;;;;;;14.78;3.50;;;;;;;25.48;37.59;100550.13;1427485;91;21442;-79
2023/10/12 12:36:23;;;;;;;9.63;2.75;;;;;;;25.38;37.88;100549.41;1422487;91;21472;-78
2023/10/12 12:41:23;;;;;;;8.58;2.77;;;;;;;25.27;37.87;100546.22;1426104;90;21680;-79
2023/10/12 12:43:47;;;;;;;16.82;3.30;;;;;;;25.33;38.41;100542.00;1418667;90;22158;-78
2023/10/12 12:46:14;;;;;;;16.55;4.10;;;;;;;25.52;38.49;100534.50;1426899;90;22524;-79
2023/10/12 12:48:45;;;;;;;19.77;3.17;;;;;;;25.75;38.38;100535.41;1414148;91;21598;-80
2023/10/12 12:51:11;;;;;;;8.30;2.95;;;;;;;25.88;37.58;100525.09;1468527;88;21537;-80
2023/10/12 12:53:36;;;;;;;15.68;3.25;;;;;;;26.13;37.59;100518.44;1463114;88;22543;-77
2023/10/12 12:56:03;;;;;;;19.23;3.42;;;;;;;26.32;37.26;100518.97;1438321;89;22121;-80
2023/10/12 12:58:29;;;;;;;14.85;2.90;;;;;;;26.47;36.81;100505.63;1457382;88;21568;-79
2023/10/12 13:00:55;;;;;;;8.65;2.77;;;;;;;26.44;35.13;100503.42;1440217;89;21517;-84
2023/10/12 13:03:22;;;;;;;14.30;3.12;;;;;;;26.51;36.35;100498.65;1459013;88;21442;-90
2023/10/12 13:05:48;;;;;;;7.62;2.87;;;;;;;26.59;36.15;100497.94;1465902;88;21592;-79
2023/10/12 13:08:16;;;;;;;15.00;3.25;;;;;;;26.62;35.45;100491.47;1459949;88;21530;-78
2023/10/12 13:10:42;;;;;;;11.65;3.87;;;;;;;26.63;35.25;100483.59;1447858;88;21538;-79
2023/10/12 13:13:09;;;;;;;10.93;3.42;;;;;;;26.65;35.62;100479.28;1459027;88;21649;-80
2023/10/12 13:15:42;;;;;;;17.70;3.80;;;;;;;26.68;35.24;100478.78;1451717;87;22388;-79
2023/10/12 13:18:08;;;;;;;8.15;3.27;;;;;;;26.78;35.35;100484.31;1425578;88;21449;-78
2023/10/12 13:20:34;;;;;;;11.12;2.90;;;;;;;26.78;35.01;100473.45;1449683;88;21479;-78
2023/10/12 13:23:01;;;;;;;13.45;2.75;;;;;;;26.74;34.87;100465.55;1440207;89;22802;-81
2023/10/12 13:25:27;;;;;;;7.08;3.17;;;;;;;26.61;34.59;100459.95;1467716;88;22389;-81
2023/10/12 13:27:56;;;;;;;26.65;4.05;;;;;;;26.48;35.19;100453.53;1470680;88;21405;-83
2023/10/12 13:30:22;;;;;;;13.62;4.22;;;;;;;26.37;35.43;100449.86;1470181;88;21502;-79
2023/10/12 13:32:59;;;;;;;13.38;2.90;;;;;;;26.19;35.37;100445.56;1475677;88;21479;-84
2023/10/12 13:35:32;;;;;;;10.50;3.30;;;;;;;25.97;35.53;100462.33;1464643;88;21560;-80
2023/10/12 13:38:02;;;;;;;17.60;3.20;;;;;;;25.63;35.28;100460.41;1470246;88;21508;-79
2023/10/12 13:40:27;;;;;;;15.75;2.70;;;;;;;25.36;35.72;100451.30;1470607;88;21657;-82
2023/10/12 13:42:53;;;;;;;16.17;2.92;;;;;;;25.21;36.18;100456.74;1476759;88;21420;-82
2023/10/12 13:45:21;;;;;;;12.43;3.27;;;;;;;25.08;36.59;100447.52;1477018;88;21627;-82
2023/10/12 13:47:47;;;;;;;12.55;2.75;;;;;;;24.99;36.62;100447.63;1477332;88;21598;-81